createdAt,value
2023-06-22T00:00:54.148Z,2.72
2023-06-22T00:03:24.087Z,2.30
2023-06-22T00:05:51.261Z,2.30
2023-06-22T00:08:18.823Z,2.15
2023-06-22T00:10:45.824Z,2.53
2023-06-22T00:13:13.670Z,2.88
2023-06-22T00:15:42.405Z,2.75
2023-06-22T00:18:10.894Z,2.60
2023-06-22T00:20:38.269Z,2.53
2023-06-22T00:23:09.589Z,3.10
2023-06-22T00:25:38.161Z,2.65
2023-06-22T00:28:05.844Z,3.03
2023-06-22T00:30:33.705Z,3.65
2023-06-22T00:33:00.587Z,3.55
2023-06-22T00:35:30.206Z,3.42
2023-06-22T00:38:01.839Z,3.55
2023-06-22T00:40:29.817Z,3.33
2023-06-22T00:42:57.000Z,2.72
2023-06-22T00:45:24.847Z,3.60
2023-06-22T00:47:53.729Z,3.38
2023-06-22T00:50:27.210Z,3.45
2023-06-22T00:52:57.624Z,3.78
2023-06-22T00:55:25.109Z,2.75
2023-06-22T00:57:51.813Z,3.17
2023-06-22T01:00:20.629Z,3.22
2023-06-22T01:02:48.029Z,2.92
2023-06-22T01:05:15.817Z,2.80
2023-06-22T01:07:42.501Z,3.50
2023-06-22T01:10:17.177Z,3.75
2023-06-22T01:12:49.821Z,4.00
2023-06-22T01:15:34.507Z,3.42
2023-06-22T01:18:04.988Z,2.95
2023-06-22T01:20:33.512Z,3.33
2023-06-22T01:23:12.090Z,2.58
2023-06-22T01:25:38.676Z,3.05
2023-06-22T01:28:27.049Z,2.85
2023-06-22T01:31:04.618Z,3.13
2023-06-22T01:33:35.011Z,3.03
2023-06-22T01:36:03.409Z,2.78
2023-06-22T01:38:31.506Z,2.97
2023-06-22T01:40:59.981Z,2.88
2023-06-22T01:43:27.785Z,2.88
2023-06-22T01:45:58.811Z,2.72
2023-06-22T01:48:27.107Z,2.63
2023-06-22T01:50:54.898Z,3.00
2023-06-22T01:53:25.627Z,3.03
2023-06-22T01:55:52.360Z,2.85
2023-06-22T01:58:21.893Z,2.78
2023-06-22T02:00:54.329Z,2.80
2023-06-22T02:03:27.448Z,2.83
2023-06-22T02:06:01.926Z,2.70
2023-06-22T02:08:51.923Z,2.65
2023-06-22T02:11:21.413Z,3.00
2023-06-22T02:13:48.711Z,2.78
2023-06-22T02:16:17.972Z,2.78
2023-06-22T02:18:48.816Z,3.17
2023-06-22T02:21:15.334Z,2.80
2023-06-22T02:23:41.797Z,2.90
2023-06-22T02:26:08.699Z,2.60
2023-06-22T02:28:35.186Z,2.80
2023-06-22T02:31:01.859Z,2.90
2023-06-22T02:33:28.535Z,3.03
2023-06-22T02:35:55.163Z,4.00
2023-06-22T02:38:21.782Z,2.90
2023-06-22T02:40:48.376Z,2.80
2023-06-22T02:43:14.957Z,2.58
2023-06-22T02:45:41.463Z,3.38
2023-06-22T02:48:08.160Z,2.80
2023-06-22T02:50:34.742Z,3.38
2023-06-22T02:53:01.250Z,3.67
2023-06-22T02:55:27.777Z,3.60
2023-06-22T02:57:54.273Z,3.35
2023-06-22T03:00:20.992Z,3.17
2023-06-22T03:02:49.320Z,3.00
2023-06-22T03:05:19.250Z,3.67
2023-06-22T03:07:46.666Z,3.70
2023-06-22T03:10:14.572Z,3.80
2023-06-22T03:12:41.991Z,3.78
2023-06-22T03:15:13.532Z,4.10
2023-06-22T03:17:41.357Z,4.25
2023-06-22T03:20:10.384Z,4.25
2023-06-22T03:22:37.934Z,4.00
2023-06-22T03:25:05.355Z,4.10
2023-06-22T03:27:31.839Z,4.07
2023-06-22T03:29:58.965Z,4.50
2023-06-22T03:32:26.516Z,3.70
2023-06-22T03:34:53.017Z,3.95
2023-06-22T03:37:19.558Z,4.28
2023-06-22T03:39:46.140Z,4.15
2023-06-22T03:42:12.636Z,6.38
2023-06-22T03:44:39.111Z,4.47
2023-06-22T03:47:05.694Z,4.60
2023-06-22T03:49:32.172Z,5.32
2023-06-22T03:51:58.668Z,5.07
2023-06-22T03:54:25.194Z,5.38
2023-06-22T03:56:51.689Z,5.90
2023-06-22T03:59:18.879Z,4.80
2023-06-22T04:01:45.903Z,5.47
2023-06-22T04:04:12.504Z,5.70
2023-06-22T04:06:39.114Z,5.97
2023-06-22T04:09:07.402Z,5.25
2023-06-22T04:11:33.898Z,5.53
2023-06-22T04:14:01.911Z,4.85
2023-06-22T04:16:28.490Z,4.85
2023-06-22T04:18:55.066Z,6.38
2023-06-22T04:21:21.638Z,7.57
2023-06-22T04:23:48.262Z,5.95
2023-06-22T04:26:17.722Z,5.43
2023-06-22T04:28:44.411Z,5.60
2023-06-22T04:31:11.036Z,5.82
2023-06-22T04:33:41.735Z,4.80
2023-06-22T04:36:08.269Z,6.05
2023-06-22T04:38:34.769Z,6.40
2023-06-22T04:41:04.588Z,6.22
2023-06-22T04:43:31.654Z,5.82
2023-06-22T04:46:04.334Z,7.97
2023-06-22T04:48:34.185Z,5.20
2023-06-22T04:51:04.808Z,6.35
2023-06-22T04:53:32.521Z,5.95
2023-06-22T04:55:59.125Z,6.30
2023-06-22T04:58:28.122Z,5.43
2023-06-22T05:00:54.647Z,5.47
2023-06-22T05:03:21.255Z,6.35
2023-06-22T05:05:48.017Z,8.52
2023-06-22T05:08:14.912Z,7.25
2023-06-22T05:10:51.474Z,8.52
2023-06-22T05:13:27.942Z,7.32
2023-06-22T05:16:02.342Z,7.63
2023-06-22T05:18:30.658Z,7.38
2023-06-22T05:20:58.159Z,6.55
2023-06-22T05:23:24.694Z,6.10
2023-06-22T05:25:52.312Z,5.03
2023-06-22T05:28:23.917Z,6.63
2023-06-22T05:30:50.560Z,8.07
2023-06-22T05:33:17.245Z,6.05
2023-06-22T05:35:43.807Z,5.55
2023-06-22T05:38:10.375Z,6.10
2023-06-22T05:40:36.910Z,7.38
2023-06-22T05:43:03.410Z,8.45
2023-06-22T05:45:29.941Z,7.30
2023-06-22T05:47:56.549Z,7.03
2023-06-22T05:50:23.116Z,6.50
2023-06-22T05:52:49.602Z,8.00
2023-06-22T05:55:16.599Z,7.75
2023-06-22T05:57:43.148Z,7.78
2023-06-22T06:00:12.359Z,10.23
2023-06-22T06:02:44.704Z,6.90
2023-06-22T06:05:14.858Z,6.40
2023-06-22T06:07:42.618Z,6.28
2023-06-22T06:10:10.070Z,5.60
2023-06-22T06:12:36.852Z,5.95
2023-06-22T06:15:04.579Z,6.07
2023-06-22T06:17:31.426Z,6.60
2023-06-22T06:20:07.976Z,6.22
2023-06-22T06:22:34.489Z,5.95
2023-06-22T06:25:01.012Z,6.75
2023-06-22T06:27:31.040Z,12.80
2023-06-22T06:32:24.239Z,8.80
2023-06-22T06:34:50.753Z,6.35
2023-06-22T06:37:19.449Z,14.20
2023-06-22T06:39:46.003Z,9.35
2023-06-22T06:42:12.572Z,6.60
2023-06-22T06:44:39.586Z,7.93
2023-06-22T06:47:06.165Z,10.27
2023-06-22T06:49:32.679Z,8.45
2023-06-22T06:51:59.165Z,7.35
2023-06-22T06:54:25.719Z,7.65
2023-06-22T06:56:52.263Z,8.80
2023-06-22T07:14:02.537Z,9.73
2023-06-22T07:16:29.767Z,7.88
2023-06-22T07:18:56.640Z,8.85
2023-06-22T07:21:23.217Z,7.93
2023-06-22T07:23:49.794Z,13.02
2023-06-22T07:26:18.032Z,11.73
2023-06-22T07:28:44.733Z,12.10
2023-06-22T07:31:11.354Z,10.70
2023-06-22T07:33:37.889Z,10.63
2023-06-22T07:36:08.705Z,10.07
2023-06-22T07:38:36.213Z,9.95
2023-06-22T07:41:06.486Z,8.38
2023-06-22T07:43:34.257Z,9.90
2023-06-22T07:46:01.085Z,9.70
2023-06-22T07:48:27.947Z,8.02
2023-06-22T07:50:54.785Z,8.75
2023-06-22T07:53:22.969Z,7.60
2023-06-22T07:55:50.322Z,9.95
2023-06-22T07:58:17.353Z,6.80
2023-06-22T08:00:43.898Z,8.68
2023-06-22T08:03:10.485Z,7.22
2023-06-22T08:05:37.368Z,8.73
2023-06-22T08:08:04.259Z,8.00
2023-06-22T08:10:30.852Z,9.20
2023-06-22T08:12:57.468Z,5.57
2023-06-22T08:15:24.058Z,7.50
2023-06-22T08:17:50.728Z,8.07
2023-06-22T08:20:17.424Z,6.47
2023-06-22T08:22:44.994Z,7.88
2023-06-22T08:25:12.188Z,6.70
2023-06-22T08:27:38.834Z,6.97
2023-06-22T08:30:06.112Z,7.30
2023-06-22T08:32:34.011Z,6.80
2023-06-22T08:35:01.327Z,8.52
2023-06-22T08:37:31.824Z,6.60
2023-06-22T08:40:00.600Z,7.72
2023-06-22T08:42:27.364Z,6.60
2023-06-22T08:44:54.851Z,7.70
2023-06-22T08:47:22.563Z,6.97
2023-06-22T08:49:49.222Z,7.20
2023-06-22T08:52:16.026Z,6.78
2023-06-22T08:54:42.562Z,7.72
2023-06-22T08:57:09.087Z,7.85
2023-06-22T08:59:35.780Z,7.00
2023-06-22T09:02:02.328Z,7.53
2023-06-22T09:04:29.245Z,5.75
2023-06-22T09:06:56.112Z,7.28
2023-06-22T09:09:23.019Z,6.70
2023-06-22T09:11:50.726Z,5.50
2023-06-22T09:14:17.432Z,6.65
2023-06-22T09:16:44.050Z,5.93
2023-06-22T09:19:10.751Z,6.70
2023-06-22T09:21:37.836Z,5.53
2023-06-22T09:24:04.706Z,6.28
2023-06-22T09:26:31.281Z,6.80
2023-06-22T09:28:59.163Z,6.63
2023-06-22T09:31:28.710Z,6.63
2023-06-22T09:33:55.878Z,5.80
2023-06-22T09:36:22.863Z,5.78
2023-06-22T09:38:50.279Z,5.28
2023-06-22T09:41:17.129Z,6.25
2023-06-22T09:43:43.700Z,5.57
2023-06-22T09:46:10.644Z,6.50
2023-06-22T09:48:39.269Z,6.35
2023-06-22T09:51:07.453Z,6.07
2023-06-22T09:53:35.692Z,5.45
2023-06-22T09:56:03.162Z,5.72
2023-06-22T09:58:29.738Z,5.78
2023-06-22T10:00:56.336Z,5.90
2023-06-22T10:03:24.144Z,5.55
2023-06-22T10:05:50.844Z,5.72
2023-06-22T10:08:17.402Z,5.60
2023-06-22T10:10:44.050Z,5.75
2023-06-22T10:13:11.773Z,5.25
2023-06-22T10:15:38.885Z,5.65
2023-06-22T10:18:05.756Z,5.80
2023-06-22T10:20:32.506Z,5.13
2023-06-22T10:23:00.116Z,5.10
2023-06-22T10:25:27.989Z,5.07
2023-06-22T10:27:54.815Z,5.40
2023-06-22T10:30:22.338Z,4.05
2023-06-22T10:32:48.974Z,3.95
2023-06-22T10:35:17.317Z,6.20
2023-06-22T10:37:47.909Z,6.47
2023-06-22T10:40:16.121Z,6.18
2023-06-22T10:42:43.129Z,5.80
2023-06-22T10:45:10.199Z,6.90
2023-06-22T10:47:37.409Z,7.90
2023-06-22T10:50:04.921Z,8.77
2023-06-22T10:52:31.603Z,8.52
2023-06-22T10:54:58.742Z,9.25
2023-06-22T10:57:25.358Z,10.00
2023-06-22T10:59:51.965Z,9.25
2023-06-22T11:02:18.696Z,9.98
2023-06-22T11:04:45.499Z,9.20
2023-06-22T11:07:12.068Z,6.15
2023-06-22T11:09:39.364Z,7.15
2023-06-22T11:12:07.336Z,8.57
2023-06-22T11:14:36.857Z,7.75
2023-06-22T11:17:03.522Z,7.50
2023-06-22T11:19:30.085Z,8.63
2023-06-22T11:24:39.106Z,8.60
2023-06-22T11:27:07.051Z,7.82
2023-06-22T11:29:37.974Z,7.38
2023-06-22T11:32:06.605Z,7.47
2023-06-22T11:34:33.227Z,7.60
2023-06-22T11:36:59.840Z,6.93
2023-06-22T11:39:34.253Z,7.13
2023-06-22T11:42:12.892Z,6.95
2023-06-22T11:44:39.545Z,7.70
2023-06-22T11:47:06.799Z,7.45
2023-06-22T11:49:33.408Z,8.85
2023-06-22T11:52:00.315Z,9.10
2023-06-22T11:54:26.826Z,8.40
2023-06-22T11:56:53.615Z,9.45
2023-06-22T11:59:20.250Z,9.25
2023-06-22T12:01:47.530Z,9.95
2023-06-22T12:04:15.547Z,9.60
2023-06-22T12:06:44.050Z,9.75
2023-06-22T12:09:11.325Z,10.70
2023-06-22T12:11:37.878Z,10.27
2023-06-22T12:14:05.593Z,10.45
2023-06-22T12:16:32.244Z,11.30
2023-06-22T12:18:58.804Z,11.93
2023-06-22T12:21:25.392Z,11.20
2023-06-22T12:23:52.033Z,11.25
2023-06-22T12:26:18.646Z,10.68
2023-06-22T12:28:45.201Z,11.75
2023-06-22T12:31:11.931Z,12.38
2023-06-22T12:33:38.604Z,12.15
2023-06-22T12:36:06.162Z,12.52
2023-06-22T12:38:32.752Z,10.90
2023-06-22T12:40:59.455Z,12.13
2023-06-22T12:43:26.028Z,13.57
2023-06-22T12:45:52.641Z,11.70
2023-06-22T12:48:19.177Z,10.50
2023-06-22T12:50:45.826Z,9.40
2023-06-22T12:53:12.355Z,12.90
2023-06-22T12:55:38.901Z,11.80
2023-06-22T12:58:05.441Z,14.57
2023-06-22T13:00:32.417Z,10.02
2023-06-22T13:02:59.613Z,13.93
2023-06-22T13:05:26.181Z,16.95
2023-06-22T13:07:52.721Z,28.23
2023-06-22T13:10:19.268Z,16.48
2023-06-22T13:12:45.788Z,16.77
2023-06-22T13:15:12.429Z,17.52
2023-06-22T13:17:39.170Z,14.07
2023-06-22T13:20:06.832Z,16.73
2023-06-22T13:22:41.190Z,18.15
2023-06-22T13:25:14.397Z,13.82
2023-06-22T13:27:42.171Z,15.57
2023-06-22T13:30:12.202Z,14.18
2023-06-22T13:32:42.801Z,16.23
2023-06-22T13:35:13.299Z,15.95
2023-06-22T13:37:40.120Z,20.35
2023-06-22T13:40:08.057Z,16.20
2023-06-22T13:42:35.093Z,19.17
2023-06-22T13:45:01.970Z,17.25
2023-06-22T13:47:30.802Z,19.05
2023-06-22T13:49:58.964Z,16.98
2023-06-22T13:52:25.998Z,16.95
2023-06-22T13:54:52.657Z,14.93
2023-06-22T13:57:19.341Z,13.13
2023-06-22T13:59:45.945Z,20.23
2023-06-22T14:02:12.521Z,15.43
2023-06-22T14:04:39.560Z,20.27
2023-06-22T14:07:06.291Z,19.25
2023-06-22T14:09:32.990Z,18.35
2023-06-22T14:12:04.812Z,20.23
2023-06-22T14:14:32.087Z,23.13
2023-06-22T14:16:58.650Z,19.10
2023-06-22T14:19:25.332Z,14.63
2023-06-22T14:21:51.906Z,17.35
2023-06-22T14:24:18.747Z,19.23
2023-06-22T14:26:45.336Z,15.32
2023-06-22T14:29:11.865Z,18.05
2023-06-22T14:31:38.622Z,17.30
2023-06-22T14:34:06.693Z,17.23
2023-06-22T14:36:33.403Z,19.05
2023-06-22T14:39:00.004Z,18.67
2023-06-22T14:41:26.547Z,21.02
2023-06-22T14:43:53.253Z,18.10
2023-06-22T14:46:21.256Z,15.57
2023-06-22T14:48:48.119Z,21.80
2023-06-22T14:51:17.479Z,18.25
2023-06-22T14:53:47.749Z,20.48
2023-06-22T14:56:16.540Z,18.67
2023-06-22T14:58:47.906Z,21.23
2023-06-22T15:01:15.708Z,21.00
2023-06-22T15:03:42.416Z,23.33
2023-06-22T15:06:09.868Z,21.35
2023-06-22T15:08:41.955Z,20.73
2023-06-22T15:11:09.381Z,19.73
2023-06-22T15:13:36.561Z,19.75
2023-06-22T15:16:06.772Z,18.02
2023-06-22T15:18:35.095Z,18.92
2023-06-22T15:21:05.391Z,22.15
2023-06-22T15:23:32.895Z,22.58
2023-06-22T15:26:00.237Z,19.33
2023-06-22T15:28:26.926Z,22.42
2023-06-22T15:30:53.800Z,22.48
2023-06-22T15:33:20.482Z,23.00
2023-06-22T15:35:47.378Z,18.38
2023-06-22T15:38:14.035Z,16.83
2023-06-22T15:40:40.595Z,17.17
2023-06-22T15:43:07.210Z,22.80
2023-06-22T15:45:33.849Z,21.13
2023-06-22T15:48:00.597Z,20.77
2023-06-22T15:50:27.380Z,20.95
2023-06-22T15:52:54.025Z,21.65
2023-06-22T15:55:20.781Z,19.42
2023-06-22T15:57:48.140Z,21.08
2023-06-22T16:00:18.971Z,16.80
2023-06-22T16:02:47.290Z,18.67
2023-06-22T16:05:14.243Z,20.98
2023-06-22T16:07:41.097Z,23.67
2023-06-22T16:10:08.549Z,22.42
2023-06-22T16:12:36.293Z,19.20
2023-06-22T16:15:06.278Z,22.30
2023-06-22T16:17:32.910Z,24.25
2023-06-22T16:20:00.776Z,24.88
2023-06-22T16:22:27.966Z,26.52
2023-06-22T16:24:56.916Z,28.30
2023-06-22T16:27:25.627Z,25.27
2023-06-22T16:29:52.457Z,25.50
2023-06-22T16:32:19.229Z,35.28
2023-06-22T16:34:48.856Z,32.60
2023-06-22T16:37:15.411Z,28.25
2023-06-22T16:39:42.005Z,34.50
2023-06-22T16:42:08.853Z,35.05
2023-06-22T16:44:35.997Z,31.88
2023-06-22T16:47:03.778Z,35.40
2023-06-22T16:49:30.389Z,34.90
2023-06-22T16:51:57.028Z,33.15
2023-06-22T16:54:25.157Z,32.78
2023-06-22T16:56:52.576Z,32.88
2023-06-22T16:59:19.296Z,36.58
2023-06-22T17:01:53.179Z,33.50
2023-06-22T17:04:24.083Z,37.00
2023-06-22T17:07:05.221Z,34.20
2023-06-22T17:09:33.310Z,33.35
2023-06-22T17:12:01.365Z,36.63
2023-06-22T17:14:28.318Z,32.13
2023-06-22T17:16:56.804Z,26.67
2023-06-22T17:19:24.332Z,34.45
2023-06-22T17:21:51.106Z,34.22
2023-06-22T17:24:19.055Z,32.10
2023-06-22T17:27:04.655Z,34.60
2023-06-22T17:29:41.544Z,29.02
2023-06-22T17:32:09.034Z,31.52
2023-06-22T17:34:36.491Z,33.28
2023-06-22T17:37:03.217Z,29.35
2023-06-22T17:39:30.395Z,34.95
2023-06-22T17:41:57.594Z,37.22
2023-06-22T17:44:27.952Z,35.15
2023-06-22T17:46:59.200Z,36.00
2023-06-22T17:49:33.183Z,32.53
2023-06-22T17:52:01.579Z,33.13
2023-06-22T17:54:39.870Z,36.63
2023-06-22T17:57:17.820Z,37.65
2023-06-22T17:59:51.653Z,36.40
2023-06-22T18:02:25.755Z,36.78
2023-06-22T18:04:58.947Z,33.90
2023-06-22T18:07:28.080Z,33.33
2023-06-22T18:09:55.274Z,28.80
2023-06-22T18:12:22.350Z,32.85
2023-06-22T18:14:49.705Z,30.10
2023-06-22T18:17:17.828Z,29.85
2023-06-22T18:19:47.454Z,26.83
2023-06-22T18:22:14.778Z,31.65
2023-06-22T18:24:41.787Z,29.55
2023-06-22T18:27:11.640Z,21.48
2023-06-22T18:29:40.447Z,19.58
2023-06-22T18:32:07.481Z,20.90
2023-06-22T18:34:34.696Z,15.98
2023-06-22T18:37:04.410Z,16.33
2023-06-22T18:39:33.159Z,18.08
2023-06-22T18:42:02.977Z,15.35
2023-06-22T18:44:33.790Z,15.25
2023-06-22T18:47:02.357Z,14.45
2023-06-22T18:49:33.928Z,14.73
2023-06-22T18:52:15.522Z,13.85
2023-06-22T18:54:52.025Z,12.45
2023-06-22T18:57:27.181Z,19.05
2023-06-22T18:59:57.045Z,13.48
2023-06-22T19:02:58.961Z,13.52
2023-06-22T19:05:42.444Z,13.80
2023-06-22T19:08:10.229Z,12.82
2023-06-22T19:10:39.468Z,13.40
2023-06-22T19:13:24.591Z,12.73
2023-06-22T19:16:02.046Z,13.85
2023-06-22T19:18:35.394Z,13.30
2023-06-22T19:21:07.733Z,14.88
2023-06-22T19:23:44.217Z,15.10
2023-06-22T19:28:55.546Z,11.93
2023-06-22T19:31:24.732Z,9.63
2023-06-22T19:33:55.802Z,9.18
2023-06-22T19:36:23.148Z,8.10
2023-06-22T19:38:49.736Z,8.30
2023-06-22T19:41:16.534Z,8.60
2023-06-22T19:43:43.429Z,8.15
2023-06-22T19:46:10.060Z,8.95
2023-06-22T19:48:36.769Z,8.82
2023-06-22T19:51:05.969Z,8.98
2023-06-22T19:53:32.927Z,9.40
2023-06-22T19:55:59.873Z,10.57
2023-06-22T19:58:26.581Z,9.75
2023-06-22T20:00:56.220Z,10.18
2023-06-22T20:03:37.544Z,9.48
2023-06-22T20:06:12.549Z,10.00
2023-06-22T20:08:51.204Z,11.95
2023-06-22T20:11:30.378Z,10.27
2023-06-22T20:13:58.588Z,11.93
2023-06-22T20:16:26.132Z,12.45
2023-06-22T20:19:08.011Z,13.50
2023-06-22T20:21:35.004Z,11.18
2023-06-22T20:24:08.628Z,15.50
2023-06-22T20:26:42.919Z,12.18
2023-06-22T20:29:28.347Z,12.48
2023-06-22T20:32:08.629Z,13.27
2023-06-22T20:34:47.580Z,19.80
2023-06-22T20:37:15.763Z,13.98
2023-06-22T20:39:46.734Z,13.85
2023-06-22T20:42:15.618Z,16.30
2023-06-22T20:44:42.263Z,14.93
2023-06-22T20:47:11.324Z,14.57
2023-06-22T20:49:38.425Z,15.57
2023-06-22T20:52:07.662Z,16.42
2023-06-22T20:54:34.881Z,15.25
2023-06-22T20:57:01.498Z,15.40
2023-06-22T20:59:29.502Z,16.48
2023-06-22T21:01:57.501Z,17.75
2023-06-22T21:04:24.547Z,18.33
2023-06-22T21:06:51.116Z,18.98
2023-06-22T21:09:18.954Z,17.52
2023-06-22T21:11:45.518Z,19.88
2023-06-22T21:14:19.515Z,18.30
2023-06-22T21:16:48.641Z,20.27
2023-06-22T21:19:15.505Z,19.83
2023-06-22T21:21:42.179Z,18.25
2023-06-22T21:24:08.849Z,22.05
2023-06-22T21:26:35.437Z,19.35
2023-06-22T21:29:02.052Z,22.90
2023-06-22T21:31:28.641Z,20.95
2023-06-22T21:33:55.425Z,17.92
2023-06-22T21:36:22.023Z,19.25
2023-06-22T21:38:48.601Z,21.25
2023-06-22T21:41:15.152Z,18.55
2023-06-22T21:43:42.160Z,20.48
2023-06-22T21:46:08.702Z,20.83
2023-06-22T21:48:35.290Z,22.27
2023-06-22T21:51:01.997Z,23.23
2023-06-22T21:53:28.638Z,24.58
2023-06-22T21:55:55.412Z,19.30
2023-06-22T21:58:26.688Z,24.70
2023-06-22T22:00:56.059Z,23.25
2023-06-22T22:03:28.829Z,25.77
2023-06-22T22:05:56.731Z,25.58
2023-06-22T22:08:24.587Z,26.15
2023-06-22T22:10:51.299Z,25.23
2023-06-22T22:13:19.604Z,24.38
2023-06-22T22:15:46.524Z,23.98
2023-06-22T22:18:13.228Z,24.40
2023-06-22T22:20:40.656Z,22.48
2023-06-22T22:23:08.317Z,24.40
2023-06-22T22:25:35.288Z,23.88
2023-06-22T22:28:02.242Z,18.42
2023-06-22T22:30:28.915Z,20.33
2023-06-22T22:32:55.598Z,22.52
2023-06-22T22:35:22.293Z,19.48
2023-06-22T22:37:48.848Z,18.35
2023-06-22T22:40:15.398Z,19.83
2023-06-22T22:42:42.023Z,20.98
2023-06-22T22:45:09.155Z,19.10
2023-06-22T22:47:35.888Z,21.50
2023-06-22T22:50:02.688Z,19.33
2023-06-22T22:52:36.000Z,16.13
2023-06-22T22:55:10.549Z,18.65
2023-06-22T22:57:37.187Z,16.00
2023-06-22T23:00:05.054Z,18.00
2023-06-22T23:02:31.719Z,14.93
2023-06-22T23:05:00.122Z,15.50
2023-06-22T23:07:29.147Z,16.42
2023-06-22T23:09:56.570Z,14.57
2023-06-22T23:12:23.700Z,14.82
2023-06-22T23:14:53.181Z,13.70
2023-06-22T23:17:20.144Z,14.00
2023-06-22T23:19:47.631Z,12.45
2023-06-22T23:22:14.782Z,12.73
2023-06-22T23:24:41.655Z,11.70
2023-06-22T23:27:15.486Z,10.57
2023-06-22T23:29:45.089Z,10.30
2023-06-22T23:32:12.012Z,10.45
2023-06-22T23:34:38.709Z,10.35
2023-06-22T23:37:05.621Z,9.68
2023-06-22T23:39:32.363Z,10.27
2023-06-22T23:41:58.944Z,9.75
2023-06-22T23:44:26.036Z,9.57
2023-06-22T23:46:52.787Z,10.55
2023-06-22T23:49:19.461Z,11.10
2023-06-22T23:51:46.080Z,10.68
2023-06-22T23:54:12.704Z,11.20
2023-06-22T23:56:39.343Z,12.07
2023-06-22T23:59:05.941Z,10.90
